Time;durP1;ratioP1;P1;durP2;ratioP2;P2;SDS_P1;SDS_P2;PMS_P1;PMS_P2;Temp;Humidity;BMP_temperature;BMP_pressure;BME280_temperature;BME280_humidity;BME280_pressure;Samples;Min_cycle;Max_cycle;Signal;HPM_P1;HPM_P2
2022/03/16 00:00:25;;;;;;;39.38;18.25;;;;;;;;;;5023537;28;20095;-83
2022/03/16 00:02:51;;;;;;;36.72;18.63;;;;;;;;;;5024145;28;20477;-83
2022/03/16 00:05:17;;;;;;;32.72;18.40;;;;;;;;;;5040136;28;20022;-83
2022/03/16 00:07:43;;;;;;;34.83;19.13;;;;;;;;;;5044003;28;20017;-85
2022/03/16 00:10:09;;;;;;;36.65;18.85;;;;;;;;;;5045796;28;20056;-83
2022/03/16 00:12:36;;;;;;;33.63;17.83;;;;;;;;;;5045394;28;20044;-84
2022/03/16 00:15:03;;;;;;;33.25;17.92;;;;;;;;;;5044730;28;20021;-83
2022/03/16 00:17:29;;;;;;;33.70;18.45;;;;;;;;;;5026076;28;20092;-83
2022/03/16 00:19:55;;;;;;;35.97;19.38;;;;;;;;;;5045672;28;20028;-83
2022/03/16 00:22:21;;;;;;;36.70;19.60;;;;;;;;;;5045160;28;20445;-83
2022/03/16 00:24:47;;;;;;;35.50;18.70;;;;;;;;;;5045549;28;20172;-84
2022/03/16 00:27:13;;;;;;;36.78;19.67;;;;;;;;;;5050294;28;20070;-84
2022/03/16 00:29:39;;;;;;;37.80;19.83;;;;;;;;;;5022935;28;20056;-81
2022/03/16 00:32:05;;;;;;;37.65;19.63;;;;;;;;;;5041090;28;20025;-82
2022/03/16 00:34:31;;;;;;;42.33;20.48;;;;;;;;;;5023803;28;20029;-83
2022/03/16 00:36:57;;;;;;;38.65;19.05;;;;;;;;;;5023773;28;20029;-84
2022/03/16 00:39:23;;;;;;;36.75;19.50;;;;;;;;;;5024695;28;20021;-83
2022/03/16 00:41:49;;;;;;;39.72;19.77;;;;;;;;;;5041829;28;20033;-84
2022/03/16 00:44:15;;;;;;;38.30;20.73;;;;;;;;;;5024236;28;20026;-82
2022/03/16 00:46:42;;;;;;;37.33;20.00;;;;;;;;;;5041957;28;20120;-82
2022/03/16 00:49:08;;;;;;;40.45;22.42;;;;;;;;;;5042688;28;20025;-83
2022/03/16 00:51:34;;;;;;;38.83;21.30;;;;;;;;;;5024694;28;20033;-83
2022/03/16 00:54:00;;;;;;;37.15;20.70;;;;;;;;;;5042675;28;20044;-83
2022/03/16 00:56:26;;;;;;;40.55;21.77;;;;;;;;;;5042628;28;20049;-82
2022/03/16 00:58:52;;;;;;;41.75;21.55;;;;;;;;;;5026028;28;20022;-82
2022/03/16 01:01:18;;;;;;;40.03;20.33;;;;;;;;;;5025457;28;20037;-82
2022/03/16 01:03:44;;;;;;;43.63;22.30;;;;;;;;;;5043480;28;20101;-84
2022/03/16 01:06:15;;;;;;;41.33;21.15;;;;;;;;;;5041791;28;20085;-80
2022/03/16 01:08:41;;;;;;;40.80;22.00;;;;;;;;;;5043708;28;20025;-82
2022/03/16 01:11:07;;;;;;;45.83;22.58;;;;;;;;;;5043337;28;20081;-83
2022/03/16 01:13:33;;;;;;;45.72;22.77;;;;;;;;;;5043342;28;20036;-83
2022/03/16 01:15:59;;;;;;;38.95;21.65;;;;;;;;;;5044618;28;20039;-84
2022/03/16 01:18:25;;;;;;;44.22;22.58;;;;;;;;;;5027909;28;20050;-83
2022/03/16 01:20:51;;;;;;;41.55;21.75;;;;;;;;;;5024491;28;20061;-84
2022/03/16 01:23:17;;;;;;;41.28;20.83;;;;;;;;;;5023937;28;20026;-83
2022/03/16 01:25:43;;;;;;;40.08;19.80;;;;;;;;;;5025278;28;20030;-81
2022/03/16 01:28:09;;;;;;;39.17;20.92;;;;;;;;;;5025564;28;20029;-83
2022/03/16 01:30:35;;;;;;;37.40;20.25;;;;;;;;;;5039752;28;20029;-83
2022/03/16 01:33:01;;;;;;;39.40;20.73;;;;;;;;;;5038766;28;20553;-84
2022/03/16 01:35:27;;;;;;;39.95;20.90;;;;;;;;;;5037692;28;20081;-83
2022/03/16 01:37:53;;;;;;;37.13;19.77;;;;;;;;;;5037183;28;20438;-81
2022/03/16 01:40:19;;;;;;;35.83;18.85;;;;;;;;;;5037904;28;20036;-83
2022/03/16 01:42:45;;;;;;;34.53;19.33;;;;;;;;;;5038398;28;20022;-84
2022/03/16 01:45:11;;;;;;;32.70;18.15;;;;;;;;;;5019589;28;20060;-84
2022/03/16 01:47:37;;;;;;;37.55;20.02;;;;;;;;;;5020685;28;20534;-83
2022/03/16 01:50:03;;;;;;;38.22;19.52;;;;;;;;;;5037589;28;20033;-83
2022/03/16 01:52:30;;;;;;;35.03;19.38;;;;;;;;;;5038540;28;20497;-84
2022/03/16 01:54:58;;;;;;;33.72;19.33;;;;;;;;;;5038521;28;20080;-83
2022/03/16 01:57:24;;;;;;;34.72;19.00;;;;;;;;;;5019961;28;20474;-84
2022/03/16 01:59:50;;;;;;;37.28;19.70;;;;;;;;;;5019177;28;20030;-83
2022/03/16 02:02:17;;;;;;;35.97;18.90;;;;;;;;;;5047302;28;20483;-83
2022/03/16 02:04:44;;;;;;;38.67;20.55;;;;;;;;;;5057493;28;20029;-82
2022/03/16 02:07:10;;;;;;;38.50;19.70;;;;;;;;;;5044750;28;20063;-82
2022/03/16 02:09:36;;;;;;;35.83;18.73;;;;;;;;;;5037410;28;20029;-83
2022/03/16 02:12:02;;;;;;;37.05;19.38;;;;;;;;;;5036966;28;20071;-84
2022/03/16 02:14:29;;;;;;;36.15;19.25;;;;;;;;;;5038381;28;20432;-83
2022/03/16 02:16:56;;;;;;;38.85;18.60;;;;;;;;;;5019238;28;20070;-83
2022/03/16 02:19:22;;;;;;;38.30;19.50;;;;;;;;;;5037527;28;20052;-82
2022/03/16 02:21:54;;;;;;;36.72;20.63;;;;;;;;;;5019492;28;20037;-83
2022/03/16 02:24:20;;;;;;;34.00;17.70;;;;;;;;;;5029404;28;20026;-83
2022/03/16 02:26:46;;;;;;;35.90;18.73;;;;;;;;;;5017901;28;20037;-83
2022/03/16 02:29:12;;;;;;;34.42;18.90;;;;;;;;;;5015181;28;20469;-83
2022/03/16 02:31:38;;;;;;;31.60;18.10;;;;;;;;;;5015136;28;20395;-81
2022/03/16 02:34:04;;;;;;;35.15;18.20;;;;;;;;;;5015740;28;20033;-84
2022/03/16 02:36:30;;;;;;;34.13;19.15;;;;;;;;;;5033264;28;20072;-82
2022/03/16 02:38:56;;;;;;;36.05;17.67;;;;;;;;;;5033820;28;20034;-83
2022/03/16 02:41:22;;;;;;;34.25;17.58;;;;;;;;;;5015878;28;20537;-82
2022/03/16 02:43:48;;;;;;;35.70;18.48;;;;;;;;;;5015224;28;20026;-82
2022/03/16 02:46:14;;;;;;;32.88;18.15;;;;;;;;;;5033735;28;20128;-81
2022/03/16 02:48:40;;;;;;;33.42;18.08;;;;;;;;;;5016715;28;20071;-80
2022/03/16 02:51:06;;;;;;;36.40;19.42;;;;;;;;;;5034197;28;20422;-83
2022/03/16 02:53:32;;;;;;;29.67;16.73;;;;;;;;;;5016406;28;20049;-82
2022/03/16 02:55:58;;;;;;;31.70;18.10;;;;;;;;;;5016911;28;20042;-83
2022/03/16 02:58:24;;;;;;;33.45;18.38;;;;;;;;;;5017182;28;20137;-83
2022/03/16 03:00:50;;;;;;;28.02;15.43;;;;;;;;;;5034503;28;20038;-83
2022/03/16 03:03:17;;;;;;;35.03;18.15;;;;;;;;;;5034904;28;20021;-83
2022/03/16 03:05:43;;;;;;;29.88;17.17;;;;;;;;;;5035092;28;20022;-83
2022/03/16 03:08:09;;;;;;;31.27;16.17;;;;;;;;;;5016731;28;20485;-82
2022/03/16 03:10:35;;;;;;;33.28;18.35;;;;;;;;;;5035163;28;20072;-82
2022/03/16 03:13:01;;;;;;;32.20;16.50;;;;;;;;;;5035155;28;20037;-83
2022/03/16 03:15:27;;;;;;;33.10;16.95;;;;;;;;;;5029325;28;20025;-84
2022/03/16 03:17:53;;;;;;;33.25;17.80;;;;;;;;;;5049444;28;20021;-82
2022/03/16 03:20:19;;;;;;;35.08;18.38;;;;;;;;;;5048170;28;20051;-83
2022/03/16 03:22:45;;;;;;;35.58;18.33;;;;;;;;;;5048988;28;20050;-84
2022/03/16 03:25:13;;;;;;;36.80;18.38;;;;;;;;;;5017141;28;20026;-84
2022/03/16 03:27:39;;;;;;;36.85;18.45;;;;;;;;;;5028961;28;20010;-84
2022/03/16 03:30:06;;;;;;;34.75;18.50;;;;;;;;;;5029350;28;20037;-84
2022/03/16 03:32:32;;;;;;;36.15;17.98;;;;;;;;;;5047631;28;20060;-84
2022/03/16 03:34:58;;;;;;;38.50;19.05;;;;;;;;;;5048575;28;20029;-85
2022/03/16 03:37:30;;;;;;;35.17;18.52;;;;;;;;;;5046613;28;20030;-83
2022/03/16 03:39:57;;;;;;;41.75;19.80;;;;;;;;;;5030561;28;20041;-83
2022/03/16 03:42:23;;;;;;;33.05;18.42;;;;;;;;;;5032204;28;20025;-83
2022/03/16 03:44:49;;;;;;;36.90;19.20;;;;;;;;;;5050613;28;20021;-83
2022/03/16 03:47:16;;;;;;;36.78;19.83;;;;;;;;;;5052553;28;20060;-83
2022/03/16 03:49:43;;;;;;;37.05;19.55;;;;;;;;;;5032853;28;20060;-83
2022/03/16 03:52:09;;;;;;;35.25;18.88;;;;;;;;;;5033088;28;20030;-83
2022/03/16 03:54:35;;;;;;;37.92;19.00;;;;;;;;;;5033138;28;20041;-82
2022/03/16 03:57:01;;;;;;;35.30;18.85;;;;;;;;;;5050808;28;20081;-83
2022/03/16 03:59:27;;;;;;;33.97;18.25;;;;;;;;;;5051470;28;20051;-84
2022/03/16 04:01:53;;;;;;;36.83;18.58;;;;;;;;;;5049345;28;20033;-84
2022/03/16 04:04:19;;;;;;;36.63;17.92;;;;;;;;;;5049800;28;20074;-83
2022/03/16 04:06:45;;;;;;;35.70;18.52;;;;;;;;;;5049245;28;20029;-83
2022/03/16 04:09:11;;;;;;;34.63;18.05;;;;;;;;;;5049837;28;20022;-82
2022/03/16 04:11:37;;;;;;;33.13;18.20;;;;;;;;;;5049579;28;20040;-83
2022/03/16 04:14:03;;;;;;;36.17;18.65;;;;;;;;;;5032122;28;20022;-84
2022/03/16 04:16:29;;;;;;;35.20;19.48;;;;;;;;;;5033960;28;20064;-83
2022/03/16 04:18:55;;;;;;;40.05;19.48;;;;;;;;;;5050633;28;20060;-84
2022/03/16 04:21:22;;;;;;;36.70;18.50;;;;;;;;;;5052391;28;20089;-84
2022/03/16 04:23:49;;;;;;;32.20;18.38;;;;;;;;;;5032425;28;20033;-83
2022/03/16 04:26:15;;;;;;;32.92;18.08;;;;;;;;;;5033646;28;20014;-83
2022/03/16 04:28:41;;;;;;;36.20;18.00;;;;;;;;;;5031932;28;20033;-84
2022/03/16 04:31:07;;;;;;;36.90;18.85;;;;;;;;;;5018130;28;20068;-84
2022/03/16 04:33:33;;;;;;;34.22;18.95;;;;;;;;;;5047267;28;20079;-84
2022/03/16 04:35:59;;;;;;;38.00;19.58;;;;;;;;;;5029140;28;20443;-83
2022/03/16 04:38:25;;;;;;;39.10;19.73;;;;;;;;;;5046634;28;20048;-84
2022/03/16 04:40:51;;;;;;;32.20;17.73;;;;;;;;;;5046019;28;20038;-83
2022/03/16 04:43:17;;;;;;;44.42;20.58;;;;;;;;;;5045224;28;20022;-81
2022/03/16 04:45:43;;;;;;;35.22;19.33;;;;;;;;;;5029038;28;20064;-84
2022/03/16 04:48:11;;;;;;;38.60;19.80;;;;;;;;;;5047429;28;20022;-83
2022/03/16 04:50:38;;;;;;;38.33;18.73;;;;;;;;;;5029276;28;20029;-84
2022/03/16 04:53:04;;;;;;;37.15;18.98;;;;;;;;;;5045917;28;20042;-84
2022/03/16 04:55:30;;;;;;;37.60;18.90;;;;;;;;;;5028110;28;20029;-84
2022/03/16 04:57:57;;;;;;;40.90;20.67;;;;;;;;;;5028734;28;20029;-84
2022/03/16 05:00:24;;;;;;;39.65;20.58;;;;;;;;;;5045381;28;20022;-84
2022/03/16 05:02:50;;;;;;;37.13;18.48;;;;;;;;;;5045767;28;20020;-83
2022/03/16 05:05:16;;;;;;;38.25;19.58;;;;;;;;;;5046341;28;20025;-83
2022/03/16 05:07:42;;;;;;;39.53;20.40;;;;;;;;;;5046327;28;20055;-83
2022/03/16 05:10:11;;;;;;;39.30;19.70;;;;;;;;;;5027027;28;20042;-82
2022/03/16 05:12:41;;;;;;;39.40;21.23;;;;;;;;;;5045799;28;20580;-84
2022/03/16 05:15:07;;;;;;;38.58;19.63;;;;;;;;;;5048442;28;20035;-83
2022/03/16 05:17:34;;;;;;;39.10;20.38;;;;;;;;;;5044007;28;20029;-84
2022/03/16 05:20:00;;;;;;;39.90;20.58;;;;;;;;;;5045129;28;20029;-83
2022/03/16 05:22:26;;;;;;;39.00;21.13;;;;;;;;;;5027919;28;20033;-83
2022/03/16 05:24:52;;;;;;;38.05;19.50;;;;;;;;;;5045427;28;20041;-83
2022/03/16 05:27:20;;;;;;;43.15;22.27;;;;;;;;;;5044609;28;20085;-85
2022/03/16 05:29:46;;;;;;;41.92;21.85;;;;;;;;;;5045283;28;20025;-84
2022/03/16 05:32:12;;;;;;;48.40;24.60;;;;;;;;;;5027337;28;20091;-83
2022/03/16 05:34:38;;;;;;;41.70;22.05;;;;;;;;;;5046069;28;20033;-84
2022/03/16 05:37:05;;;;;;;43.20;22.92;;;;;;;;;;5045565;28;20091;-83
2022/03/16 05:39:31;;;;;;;48.70;24.75;;;;;;;;;;5045048;28;20036;-84
2022/03/16 05:41:57;;;;;;;45.70;24.13;;;;;;;;;;5046441;28;20087;-80
2022/03/16 05:44:23;;;;;;;45.88;24.50;;;;;;;;;;5045482;28;20469;-83
2022/03/16 05:46:50;;;;;;;53.78;26.05;;;;;;;;;;5046223;28;20021;-83
2022/03/16 05:49:16;;;;;;;49.30;25.15;;;;;;;;;;5044908;28;20030;-83
2022/03/16 05:51:42;;;;;;;51.40;25.42;;;;;;;;;;5025928;28;20063;-83
2022/03/16 05:54:08;;;;;;;43.92;23.65;;;;;;;;;;5027422;28;20093;-83
2022/03/16 05:56:35;;;;;;;50.03;25.35;;;;;;;;;;5020795;28;20019;-82
2022/03/16 05:59:01;;;;;;;50.45;26.58;;;;;;;;;;5045116;28;20025;-84
2022/03/16 06:01:27;;;;;;;52.38;26.40;;;;;;;;;;5044831;28;20071;-84
2022/03/16 06:03:53;;;;;;;54.15;26.60;;;;;;;;;;5043208;28;20017;-83
2022/03/16 06:06:22;;;;;;;50.97;25.77;;;;;;;;;;5043149;28;20029;-84
2022/03/16 06:09:10;;;;;;;46.78;24.55;;;;;;;;;;5027417;28;20052;-84
2022/03/16 06:11:41;;;;;;;51.50;26.67;;;;;;;;;;5048929;28;20112;-85
2022/03/16 06:17:04;;;;;;;;;;;;;;;;;;;;;
2022/03/16 06:23:02;;;;;;;50.28;25.20;;;;;;;;;;4995746;28;20030;-84
2022/03/16 06:25:28;;;;;;;52.53;27.88;;;;;;;;;;5044368;28;20025;-84
2022/03/16 06:34:55;;;;;;;49.97;25.98;;;;;;;;;;4924204;29;20031;-83
2022/03/16 06:50:26;;;;;;;;;;;;;;;;;;;;;
2022/03/16 06:53:07;;;;;;;58.58;27.98;;;;;;;;;;5002337;28;20475;-83
2022/03/16 06:58:40;;;;;;;55.05;28.40;;;;;;;;;;5018549;28;20050;-83
2022/03/16 07:01:18;;;;;;;58.15;27.90;;;;;;;;;;5027655;28;20104;-82
2022/03/16 07:03:44;;;;;;;55.15;27.27;;;;;;;;;;5035757;28;20101;-84
2022/03/16 07:07:08;;;;;;;56.33;28.10;;;;;;;;;;5018860;28;20060;-83
2022/03/16 07:09:09;;;;;;;57.10;26.65;;;;;;;;;;5012455;28;20036;-85
2022/03/16 07:11:35;;;;;;;56.40;29.90;;;;;;;;;;5014173;28;20363;-84
2022/03/16 07:16:46;;;;;;;55.60;28.92;;;;;;;;;;5019762;28;20032;-84
2022/03/16 07:19:12;;;;;;;56.70;28.33;;;;;;;;;;5037823;28;20036;-84
2022/03/16 07:21:38;;;;;;;59.90;28.40;;;;;;;;;;5012676;28;20089;-85
2022/03/16 07:24:05;;;;;;;54.17;28.52;;;;;;;;;;5001164;28;20049;-87
2022/03/16 07:26:31;;;;;;;59.05;29.13;;;;;;;;;;5017986;28;20029;-83
2022/03/16 07:28:57;;;;;;;55.78;29.13;;;;;;;;;;5022477;28;20018;-83
2022/03/16 07:31:23;;;;;;;56.83;28.00;;;;;;;;;;5039828;28;20038;-84
2022/03/16 07:33:49;;;;;;;58.78;28.45;;;;;;;;;;5041154;28;20476;-86
2022/03/16 07:36:16;;;;;;;55.80;28.95;;;;;;;;;;5032157;28;20033;-87
2022/03/16 07:38:42;;;;;;;62.47;30.05;;;;;;;;;;5029781;28;20034;-87
2022/03/16 07:41:08;;;;;;;54.90;28.77;;;;;;;;;;5027496;28;20377;-85
2022/03/16 07:43:34;;;;;;;58.72;29.25;;;;;;;;;;5023989;28;20030;-87
2022/03/16 07:46:00;;;;;;;63.15;29.50;;;;;;;;;;5020171;28;20036;-88
2022/03/16 07:48:26;;;;;;;56.00;28.40;;;;;;;;;;5029451;28;20022;-87
2022/03/16 07:50:52;;;;;;;57.05;29.00;;;;;;;;;;5039613;28;20029;-86
2022/03/16 07:53:18;;;;;;;59.85;31.05;;;;;;;;;;5036266;28;20034;-86
2022/03/16 07:55:48;;;;;;;53.15;27.75;;;;;;;;;;5025657;28;20153;-87
2022/03/16 07:58:14;;;;;;;62.40;29.77;;;;;;;;;;5034261;28;20430;-85
2022/03/16 08:03:48;;;;;;;57.58;28.77;;;;;;;;;;5013395;28;20034;-82
2022/03/16 08:06:22;;;;;;;;;;;;;;;;;;5033657;28;20067;-85
2022/03/16 08:12:04;;;;;;;55.53;27.48;;;;;;;;;;4994689;28;20402;-84
2022/03/16 08:15:00;;;;;;;56.10;27.52;;;;;;;;;;4996215;28;20085;-85
2022/03/16 08:20:19;;;;;;;57.42;28.73;;;;;;;;;;5028435;28;20084;-86
2022/03/16 08:22:45;;;;;;;57.08;28.83;;;;;;;;;;5019989;28;20035;-84
2022/03/16 08:28:04;;;;;;;58.63;28.67;;;;;;;;;;5086247;22;20583;-83
2022/03/16 08:30:30;;;;;;;53.80;26.40;;;;;;;;;;5039928;28;20057;-83
2022/03/16 08:32:56;;;;;;;53.50;27.10;;;;;;;;;;5039363;28;20085;-82
2022/03/16 08:35:23;;;;;;;55.00;27.58;;;;;;;;;;5021265;28;20026;-81
2022/03/16 08:37:49;;;;;;;51.40;26.70;;;;;;;;;;5021952;28;20032;-84
2022/03/16 08:40:16;;;;;;;63.15;27.20;;;;;;;;;;5038869;28;20037;-83
2022/03/16 08:42:43;;;;;;;54.72;27.00;;;;;;;;;;5042223;28;20117;-82
2022/03/16 08:45:10;;;;;;;58.47;28.25;;;;;;;;;;5038941;28;20018;-82
2022/03/16 08:47:37;;;;;;;57.53;27.65;;;;;;;;;;5039572;28;20041;-81
2022/03/16 08:50:03;;;;;;;50.97;26.50;;;;;;;;;;5039427;28;20084;-83
2022/03/16 08:52:29;;;;;;;54.05;27.42;;;;;;;;;;5039046;28;20140;-83
2022/03/16 08:54:55;;;;;;;51.28;26.23;;;;;;;;;;5039863;28;20026;-83
2022/03/16 08:57:22;;;;;;;49.90;25.45;;;;;;;;;;5039699;28;20026;-85
2022/03/16 08:59:49;;;;;;;56.03;26.05;;;;;;;;;;5020998;28;20044;-81
2022/03/16 09:02:15;;;;;;;52.53;25.75;;;;;;;;;;5034288;28;20021;-81
2022/03/16 09:04:41;;;;;;;48.63;24.73;;;;;;;;;;5037943;28;20032;-81
2022/03/16 09:07:07;;;;;;;58.10;25.98;;;;;;;;;;5039909;28;20452;-85
2022/03/16 09:09:33;;;;;;;49.95;25.02;;;;;;;;;;5040263;28;20060;-81
2022/03/16 09:12:00;;;;;;;50.80;26.30;;;;;;;;;;5038190;28;20086;-84
2022/03/16 09:14:26;;;;;;;50.00;25.40;;;;;;;;;;5038311;28;20025;-83
2022/03/16 09:16:52;;;;;;;53.28;24.88;;;;;;;;;;5021063;28;20045;-83
2022/03/16 09:19:22;;;;;;;53.35;26.63;;;;;;;;;;5021472;28;20033;-82
2022/03/16 09:21:48;;;;;;;47.30;24.88;;;;;;;;;;5036875;28;20087;-82
2022/03/16 09:24:14;;;;;;;52.33;25.52;;;;;;;;;;5038754;28;20040;-80
2022/03/16 09:26:46;;;;;;;52.10;25.15;;;;;;;;;;5020951;28;20025;-85
2022/03/16 09:29:13;;;;;;;46.83;24.90;;;;;;;;;;5020942;28;20093;-84
2022/03/16 09:31:40;;;;;;;48.83;25.02;;;;;;;;;;5039063;28;20033;-82
2022/03/16 09:34:07;;;;;;;45.20;25.33;;;;;;;;;;5020932;28;20116;-85
2022/03/16 09:36:37;;;;;;;47.88;24.73;;;;;;;;;;5017817;28;20022;-82
2022/03/16 09:39:03;;;;;;;42.03;22.63;;;;;;;;;;5024745;23;20043;-84
2022/03/16 09:41:29;;;;;;;41.38;22.10;;;;;;;;;;4998595;28;20045;-83
2022/03/16 09:43:56;;;;;;;41.70;22.20;;;;;;;;;;5010086;28;20019;-81
2022/03/16 09:46:26;;;;;;;39.92;22.13;;;;;;;;;;4998303;28;20034;-84
2022/03/16 09:48:52;;;;;;;42.60;23.02;;;;;;;;;;4981565;28;20078;-82
2022/03/16 09:51:19;;;;;;;40.78;22.38;;;;;;;;;;4976050;28;20038;-82
2022/03/16 09:53:45;;;;;;;39.10;21.85;;;;;;;;;;4974593;28;20030;-83
2022/03/16 09:56:12;;;;;;;39.30;21.67;;;;;;;;;;4966965;28;20114;-82
2022/03/16 09:58:38;;;;;;;39.35;22.80;;;;;;;;;;4988943;28;20031;-81
2022/03/16 10:01:05;;;;;;;39.33;22.05;;;;;;;;;;4975794;28;20062;-82
2022/03/16 10:03:31;;;;;;;40.08;21.55;;;;;;;;;;4976047;28;20027;-83
2022/03/16 10:05:58;;;;;;;42.92;22.60;;;;;;;;;;4960006;28;20034;-83
2022/03/16 10:08:37;;;;;;;38.70;21.20;;;;;;;;;;4975687;28;20023;-83
2022/03/16 10:13:58;;;;;;;43.00;23.20;;;;;;;;;;4977787;28;20078;-81
2022/03/16 10:16:25;;;;;;;38.15;22.45;;;;;;;;;;4991277;28;20062;-83
2022/03/16 10:18:55;;;;;;;39.63;21.90;;;;;;;;;;4976071;28;20403;-82
2022/03/16 10:21:22;;;;;;;40.95;23.38;;;;;;;;;;4975238;28;20039;-84
2022/03/16 10:23:48;;;;;;;41.67;22.50;;;;;;;;;;4975483;28;20029;-83
2022/03/16 10:26:18;;;;;;;40.80;22.33;;;;;;;;;;4974454;28;20037;-81
2022/03/16 10:28:46;;;;;;;39.28;22.52;;;;;;;;;;4975733;28;20030;-83
2022/03/16 10:31:14;;;;;;;40.33;20.85;;;;;;;;;;4974765;28;20030;-84
2022/03/16 10:33:46;;;;;;;37.85;20.80;;;;;;;;;;4972792;28;20050;-82
2022/03/16 10:36:16;;;;;;;40.80;20.88;;;;;;;;;;4969904;28;20030;-82
2022/03/16 10:38:44;;;;;;;36.60;19.83;;;;;;;;;;4962194;28;20039;-82
2022/03/16 10:41:12;;;;;;;34.45;21.10;;;;;;;;;;4972318;28;20022;-84
2022/03/16 10:46:39;;;;;;;38.42;21.20;;;;;;;;;;4940055;28;20079;-81
2022/03/16 10:49:07;;;;;;;37.47;20.88;;;;;;;;;;4964793;28;20019;-81
2022/03/16 10:51:34;;;;;;;48.15;20.73;;;;;;;;;;4965414;28;20019;-81
2022/03/16 10:54:02;;;;;;;38.45;20.85;;;;;;;;;;4968406;28;20030;-83
2022/03/16 10:56:28;;;;;;;37.30;20.85;;;;;;;;;;4962000;28;20502;-84
2022/03/16 10:58:54;;;;;;;36.45;20.83;;;;;;;;;;4967487;28;20123;-83
2022/03/16 11:01:22;;;;;;;36.78;20.65;;;;;;;;;;4973620;28;20039;-84
2022/03/16 11:03:49;;;;;;;35.65;19.98;;;;;;;;;;4975361;28;20027;-82
2022/03/16 11:06:18;;;;;;;38.95;21.02;;;;;;;;;;4971972;28;20023;-83
2022/03/16 11:08:44;;;;;;;35.20;19.73;;;;;;;;;;4972640;28;20031;-83
2022/03/16 11:13:57;;;;;;;37.78;20.42;;;;;;;;;;4976034;28;20119;-82
2022/03/16 11:16:24;;;;;;;32.00;18.95;;;;;;;;;;4975918;28;20077;-83
2022/03/16 11:18:51;;;;;;;31.80;19.50;;;;;;;;;;4958063;28;20027;-82
2022/03/16 11:21:21;;;;;;;32.40;18.65;;;;;;;;;;4958402;28;20031;-84
2022/03/16 11:26:51;;;;;;;32.72;19.45;;;;;;;;;;4966726;28;20456;-84
2022/03/16 11:29:38;;;;;;;31.75;19.67;;;;;;;;;;4978983;28;20026;-83
2022/03/16 11:32:09;;;;;;;32.30;18.13;;;;;;;;;;4979989;28;20050;-86
2022/03/16 11:34:35;;;;;;;38.67;19.40;;;;;;;;;;4961954;29;20031;-84
2022/03/16 11:37:03;;;;;;;32.33;18.63;;;;;;;;;;4962925;29;20271;-85
2022/03/16 11:39:39;;;;;;;33.65;18.63;;;;;;;;;;5025689;23;20050;-85
2022/03/16 11:42:11;;;;;;;32.60;18.58;;;;;;;;;;5015660;28;20106;-85
2022/03/16 11:44:39;;;;;;;29.85;17.98;;;;;;;;;;5013607;28;20079;-85
2022/03/16 11:47:13;;;;;;;28.08;17.42;;;;;;;;;;5022230;28;20037;-84
2022/03/16 11:49:42;;;;;;;38.63;19.08;;;;;;;;;;4995579;28;20026;-82
2022/03/16 11:52:09;;;;;;;31.55;18.08;;;;;;;;;;4978603;28;20022;-83
2022/03/16 11:54:46;;;;;;;37.25;18.67;;;;;;;;;;4996432;28;20029;-85
2022/03/16 11:57:13;;;;;;;32.38;17.92;;;;;;;;;;5004250;28;20034;-83
2022/03/16 11:59:44;;;;;;;31.73;18.02;;;;;;;;;;5005030;28;20033;-83
2022/03/16 12:02:21;;;;;;;31.80;17.55;;;;;;;;;;5011797;28;20102;-83
2022/03/16 12:04:47;;;;;;;31.75;17.02;;;;;;;;;;5003297;28;20029;-84
2022/03/16 12:07:15;;;;;;;32.88;17.92;;;;;;;;;;4986862;28;20137;-84
2022/03/16 12:09:42;;;;;;;27.42;16.67;;;;;;;;;;4994579;28;20482;-83
2022/03/16 12:15:19;;;;;;;26.92;16.60;;;;;;;;;;5029356;28;20065;-84
2022/03/16 12:17:51;;;;;;;31.63;18.05;;;;;;;;;;5025839;28;20034;-85
2022/03/16 12:20:24;;;;;;;29.13;17.33;;;;;;;;;;5018455;28;20036;-85
2022/03/16 12:22:50;;;;;;;28.80;17.50;;;;;;;;;;5018397;28;20572;-86
2022/03/16 12:25:26;;;;;;;30.75;16.83;;;;;;;;;;5034685;28;20037;-84
2022/03/16 12:30:41;;;;;;;29.90;17.73;;;;;;;;;;5036038;28;20037;-85
2022/03/16 12:33:12;;;;;;;30.73;18.25;;;;;;;;;;5035526;28;20017;-83
2022/03/16 12:35:38;;;;;;;32.42;18.88;;;;;;;;;;5036604;28;20033;-84
2022/03/16 12:38:11;;;;;;;30.05;17.33;;;;;;;;;;5037421;28;20038;-85
2022/03/16 12:43:28;;;;;;;30.63;18.05;;;;;;;;;;5018775;28;20045;-83
2022/03/16 12:46:20;;;;;;;32.00;19.55;;;;;;;;;;5018397;28;20025;-84
2022/03/16 12:48:46;;;;;;;;;;;;;;;;;;5035566;28;20053;-84
2022/03/16 12:51:16;;;;;;;31.08;18.77;;;;;;;;;;5015997;28;19909;-85
2022/03/16 12:53:45;;;;;;;36.38;19.80;;;;;;;;;;5032125;28;20014;-84
2022/03/16 12:56:12;;;;;;;37.33;19.23;;;;;;;;;;5030775;28;20061;-83
2022/03/16 12:58:39;;;;;;;32.65;18.25;;;;;;;;;;5032556;28;20056;-84
2022/03/16 13:01:05;;;;;;;32.90;19.13;;;;;;;;;;5033268;28;20053;-83
2022/03/16 13:03:31;;;;;;;33.17;19.60;;;;;;;;;;5015512;28;20026;-86
2022/03/16 13:05:57;;;;;;;33.33;19.00;;;;;;;;;;5014753;28;20050;-83
2022/03/16 13:08:25;;;;;;;37.22;20.13;;;;;;;;;;5022088;28;20022;-83
2022/03/16 13:11:16;;;;;;;30.10;19.13;;;;;;;;;;5035405;28;20030;-83
2022/03/16 13:13:58;;;;;;;32.40;19.25;;;;;;;;;;4997364;28;20014;-84
2022/03/16 13:16:31;;;;;;;33.03;19.10;;;;;;;;;;5034651;28;20025;-85
2022/03/16 13:18:57;;;;;;;29.83;18.65;;;;;;;;;;4997727;28;20034;-84
2022/03/16 13:21:24;;;;;;;30.85;18.75;;;;;;;;;;5014483;28;20073;-85
2022/03/16 13:24:02;;;;;;;28.00;17.60;;;;;;;;;;5030771;28;20084;-83
2022/03/16 13:26:28;;;;;;;32.30;19.23;;;;;;;;;;5018862;28;20057;-85
2022/03/16 13:28:57;;;;;;;29.00;17.55;;;;;;;;;;5035150;28;20014;-84
2022/03/16 13:31:28;;;;;;;30.95;20.23;;;;;;;;;;5018036;28;20032;-84
2022/03/16 13:33:55;;;;;;;30.15;18.60;;;;;;;;;;5036383;28;20020;-83
2022/03/16 13:36:32;;;;;;;31.48;18.90;;;;;;;;;;5036608;28;20030;-84
2022/03/16 13:38:59;;;;;;;30.00;18.17;;;;;;;;;;5000076;28;1095891;-85
2022/03/16 13:41:25;;;;;;;30.50;19.50;;;;;;;;;;5016357;28;20030;-85
2022/03/16 13:44:06;;;;;;;28.55;17.45;;;;;;;;;;5004772;28;20036;-86
2022/03/16 13:46:40;;;;;;;30.42;18.52;;;;;;;;;;5021164;28;20026;-85
2022/03/16 13:49:14;;;;;;;30.52;17.30;;;;;;;;;;5020740;28;20102;-84
2022/03/16 13:52:00;;;;;;;30.40;18.80;;;;;;;;;;5003350;28;20057;-85
2022/03/16 13:54:26;;;;;;;31.27;19.40;;;;;;;;;;5020313;28;20053;-86
2022/03/16 13:56:54;;;;;;;27.77;18.52;;;;;;;;;;5019806;28;20033;-85
2022/03/16 13:59:20;;;;;;;32.15;19.67;;;;;;;;;;5018752;28;20049;-85
2022/03/16 14:01:46;;;;;;;30.30;17.88;;;;;;;;;;5015114;28;20037;-86
2022/03/16 14:04:19;;;;;;;29.15;18.48;;;;;;;;;;5005304;28;20157;-86
2022/03/16 14:06:47;;;;;;;31.58;18.30;;;;;;;;;;5013886;28;20026;-86
2022/03/16 14:09:13;;;;;;;28.23;17.60;;;;;;;;;;5002331;28;20028;-85
2022/03/16 14:11:39;;;;;;;28.52;16.65;;;;;;;;;;5035239;28;20077;-85
2022/03/16 14:14:11;;;;;;;33.88;17.70;;;;;;;;;;5039427;28;20038;-83
2022/03/16 14:16:38;;;;;;;33.08;18.05;;;;;;;;;;5038978;28;20094;-86
2022/03/16 14:19:24;;;;;;;26.20;16.40;;;;;;;;;;5011868;28;20486;-84
2022/03/16 14:21:50;;;;;;;26.17;16.45;;;;;;;;;;5017976;28;20021;-84
2022/03/16 14:24:16;;;;;;;31.27;18.45;;;;;;;;;;4999320;28;20068;-85
2022/03/16 14:26:42;;;;;;;27.38;17.00;;;;;;;;;;5017273;28;20029;-84
2022/03/16 14:29:08;;;;;;;26.58;16.90;;;;;;;;;;4999537;28;20112;-85
2022/03/16 14:31:34;;;;;;;28.65;17.77;;;;;;;;;;4999092;28;20109;-85
2022/03/16 14:34:00;;;;;;;27.15;17.27;;;;;;;;;;4988958;28;20097;-87
2022/03/16 14:36:31;;;;;;;29.05;17.75;;;;;;;;;;4995773;28;20030;-86
2022/03/16 14:38:57;;;;;;;28.50;16.13;;;;;;;;;;5001399;28;20037;-84
2022/03/16 14:41:23;;;;;;;26.42;15.80;;;;;;;;;;4999766;28;20121;-85
2022/03/16 14:43:49;;;;;;;25.45;17.25;;;;;;;;;;5016231;28;20065;-85
2022/03/16 14:46:15;;;;;;;29.63;16.92;;;;;;;;;;4999132;28;20041;-85
2022/03/16 14:48:41;;;;;;;24.15;15.02;;;;;;;;;;4999694;28;20034;-86
2022/03/16 14:51:08;;;;;;;25.98;16.70;;;;;;;;;;5012373;28;20124;-85
2022/03/16 14:53:34;;;;;;;27.52;17.10;;;;;;;;;;4993834;28;20049;-87
2022/03/16 14:56:00;;;;;;;26.98;16.98;;;;;;;;;;5018492;28;20034;-87
2022/03/16 14:58:26;;;;;;;27.58;16.60;;;;;;;;;;4984765;28;20054;-85
2022/03/16 15:00:53;;;;;;;25.58;16.45;;;;;;;;;;5008072;28;20049;-86
2022/03/16 15:03:18;;;;;;;28.55;16.85;;;;;;;;;;5011877;28;20014;-85
2022/03/16 15:05:45;;;;;;;26.20;16.48;;;;;;;;;;5005383;28;20172;-85
2022/03/16 15:08:14;;;;;;;32.58;16.77;;;;;;;;;;5002866;28;20030;-84
2022/03/16 15:10:41;;;;;;;27.88;16.83;;;;;;;;;;5008977;28;20025;-85
2022/03/16 15:13:07;;;;;;;24.25;16.25;;;;;;;;;;5015163;28;20025;-86
2022/03/16 15:15:33;;;;;;;24.83;15.52;;;;;;;;;;5000585;28;20026;-86
2022/03/16 15:17:59;;;;;;;24.70;16.23;;;;;;;;;;4999924;28;20112;-85
2022/03/16 15:20:26;;;;;;;26.45;15.35;;;;;;;;;;5000115;28;20045;-85
2022/03/16 15:22:52;;;;;;;26.33;16.13;;;;;;;;;;5036057;28;20038;-84
2022/03/16 15:25:18;;;;;;;30.45;17.02;;;;;;;;;;5020835;28;20466;-84